Terminal Aerodrome Forecast
Issued by NWS Hastings, NE

Home | Current Version | Previous Version | Text Only | Print | Product List | Glossary On
Versions: 1 2 3 4 5 6 7 8 9 10 11 12 13 14
000
FTUS43 KGID 191357 AAA
TAFGRI
TAF AMD
KGRI 191357Z 1914/2012 17011KT P6SM BKN200
      TEMPO 1914/1916 4SM BR
     FM191600 18016G24KT P6SM BKN200
     FM200400 17018G25KT P6SM BKN020
     FM200700 17016KT P6SM OVC005
     FM201100 18014KT P6SM OVC015=

USA.gov is the U.S. government's official web portal to all federal, state and local government web resources and services.